Time;durP1;ratioP1;P1;durP2;ratioP2;P2;SDS_P1;SDS_P2;PMS_P1;PMS_P2;Temp;Humidity;BMP_temperature;BMP_pressure;BME280_temperature;BME280_humidity;BME280_pressure;Samples;Min_cycle;Max_cycle;Signal;HPM_P1;HPM_P2
2023/07/18 00:01:05;;;;;;;3.50;1.55;;;18.40;95.60;;;;;;5044423;28;20617;-24
2023/07/18 00:03:35;;;;;;;3.85;1.88;;;18.30;95.50;;;;;;5028001;28;20252;-24
2023/07/18 00:06:05;;;;;;;4.43;2.10;;;18.30;95.60;;;;;;5028032;28;20633;-24
2023/07/18 00:08:32;;;;;;;4.30;1.75;;;18.30;95.60;;;;;;5028832;28;20778;-24
2023/07/18 00:11:00;;;;;;;4.43;2.15;;;18.20;95.70;;;;;;5027979;28;20252;-24
2023/07/18 00:13:28;;;;;;;4.53;1.90;;;18.20;95.60;;;;;;5026829;28;20205;-24
2023/07/18 00:15:55;;;;;;;4.03;1.80;;;18.10;95.60;;;;;;5028382;28;20764;-24
2023/07/18 00:18:22;;;;;;;5.00;1.88;;;18.10;95.60;;;;;;5027223;28;20236;-24
2023/07/18 00:20:53;;;;;;;2.05;1.50;;;18.10;95.60;;;;;;5026951;28;20205;-24
2023/07/18 00:23:24;;;;;;;4.85;2.20;;;18.00;95.60;;;;;;5026767;28;20228;-24
2023/07/18 00:25:55;;;;;;;3.60;1.63;;;18.00;95.60;;;;;;5026758;28;20204;-24
2023/07/18 00:28:23;;;;;;;4.03;1.75;;;17.90;95.60;;;;;;5027472;28;20201;-24
2023/07/18 00:30:50;;;;;;;3.05;1.70;;;17.90;95.60;;;;;;5047926;28;20243;-24
2023/07/18 00:33:19;;;;;;;3.88;1.60;;;17.90;95.70;;;;;;5047298;28;20228;-31
2023/07/18 00:35:51;;;;;;;2.22;1.52;;;17.80;95.70;;;;;;5027099;28;20235;-31
2023/07/18 00:38:23;;;;;;;3.50;1.80;;;17.80;95.80;;;;;;5026561;28;20248;-31
2023/07/18 00:40:55;;;;;;;4.55;1.83;;;17.80;95.70;;;;;;5028033;28;20262;-31
2023/07/18 00:43:22;;;;;;;5.80;1.73;;;17.70;95.70;;;;;;5026548;28;20587;-31
2023/07/18 00:45:50;;;;;;;2.50;1.50;;;17.70;95.70;;;;;;5046082;28;20225;-31
2023/07/18 00:48:22;;;;;;;5.13;1.77;;;17.60;95.70;;;;;;5047907;28;20228;-31
2023/07/18 00:50:52;;;;;;;4.50;1.67;;;17.60;95.70;;;;;;5045545;28;20234;-31
2023/07/18 00:53:22;;;;;;;3.85;1.70;;;17.60;95.70;;;;;;5046699;28;20192;-31
2023/07/18 00:55:53;;;;;;;3.03;1.88;;;17.50;95.70;;;;;;5031258;28;20204;-31
2023/07/18 00:58:23;;;;;;;2.95;1.73;;;17.50;95.70;;;;;;5030144;28;20816;-31
2023/07/18 01:00:51;;;;;;;2.35;1.42;;;17.50;95.70;;;;;;5045487;28;20219;-31
2023/07/18 01:03:21;;;;;;;3.13;1.73;;;17.50;95.80;;;;;;5042354;28;20216;-31
2023/07/18 01:05:50;;;;;;;3.92;1.63;;;17.40;95.70;;;;;;5029075;28;20212;-31
2023/07/18 01:08:22;;;;;;;4.85;2.00;;;17.40;95.70;;;;;;5029845;28;20699;-31
2023/07/18 01:10:52;;;;;;;3.17;1.52;;;17.30;95.70;;;;;;5035073;28;20225;-31
2023/07/18 01:13:20;;;;;;;3.75;1.90;;;17.30;95.70;;;;;;5028591;28;20680;-31
2023/07/18 01:15:47;;;;;;;2.10;1.63;;;17.30;95.80;;;;;;5030202;28;20675;-31
2023/07/18 01:18:17;;;;;;;6.55;1.52;;;17.30;95.80;;;;;;5039784;28;20598;-31
2023/07/18 01:20:46;;;;;;;6.00;1.52;;;17.20;95.80;;;;;;5027311;28;20208;-31
2023/07/18 01:23:17;;;;;;;3.90;1.77;;;17.20;95.80;;;;;;5029480;28;20221;-31
2023/07/18 01:25:44;;;;;;;2.67;1.52;;;17.20;95.80;;;;;;5026692;28;20936;-31
2023/07/18 01:28:11;;;;;;;3.35;1.80;;;17.10;96.10;;;;;;5031106;28;20224;-32
2023/07/18 01:30:39;;;;;;;4.13;1.48;;;17.10;95.80;;;;;;5043731;28;20231;-31
2023/07/18 01:33:06;;;;;;;4.82;1.85;;;17.10;95.80;;;;;;5045474;28;20243;-31
2023/07/18 01:35:34;;;;;;;3.42;1.63;;;17.00;95.80;;;;;;5038307;28;20244;-31
2023/07/18 01:38:01;;;;;;;2.33;1.60;;;17.00;95.90;;;;;;5026768;28;20268;-31
2023/07/18 01:40:31;;;;;;;4.10;2.00;;;17.00;95.90;;;;;;5026684;28;20742;-31
2023/07/18 01:43:01;;;;;;;2.65;2.00;;;17.00;96.10;;;;;;5025453;28;20612;-31
2023/07/18 01:45:30;;;;;;;3.40;1.90;;;16.90;96.00;;;;;;5034419;28;20695;-31
2023/07/18 01:48:02;;;;;;;2.60;1.70;;;16.90;96.00;;;;;;5046615;28;20210;-31
2023/07/18 01:50:32;;;;;;;4.00;1.80;;;16.90;96.00;;;;;;5045631;28;20327;-31
2023/07/18 01:53:02;;;;;;;2.55;1.48;;;16.90;95.90;;;;;;5046738;28;20302;-32
2023/07/18 01:55:31;;;;;;;4.15;1.85;;;16.90;95.90;;;;;;5034611;28;20579;-31
2023/07/18 01:58:00;;;;;;;3.40;1.98;;;16.80;95.90;;;;;;5024451;28;20205;-31
2023/07/18 02:00:30;;;;;;;3.83;1.67;;;16.80;95.90;;;;;;5031983;28;20231;-31
2023/07/18 02:03:01;;;;;;;6.15;1.60;;;16.80;95.90;;;;;;5047214;28;20216;-31
2023/07/18 02:05:32;;;;;;;2.55;1.63;;;16.70;95.90;;;;;;5042560;28;20207;-31
2023/07/18 02:08:04;;;;;;;4.80;1.63;;;16.70;95.90;;;;;;5046358;28;20199;-31
2023/07/18 02:10:34;;;;;;;3.58;1.50;;;16.70;95.90;;;;;;5046255;28;20585;-32
2023/07/18 02:13:03;;;;;;;2.30;1.58;;;16.70;96.00;;;;;;5046454;28;20192;-31
2023/07/18 02:15:31;;;;;;;3.43;1.70;;;16.60;96.00;;;;;;5042817;28;20207;-31
2023/07/18 02:17:58;;;;;;;3.28;1.60;;;16.60;96.00;;;;;;5026124;28;20209;-31
2023/07/18 02:20:28;;;;;;;3.03;1.65;;;16.60;96.00;;;;;;5025453;28;20208;-31
2023/07/18 02:23:00;;;;;;;3.83;1.88;;;16.50;95.90;;;;;;5024859;28;20224;-31
2023/07/18 02:25:32;;;;;;;4.65;1.80;;;16.60;96.00;;;;;;5030947;28;20994;-31
2023/07/18 02:28:02;;;;;;;6.97;2.20;;;16.50;96.10;;;;;;5046508;28;20216;-31
2023/07/18 02:30:29;;;;;;;2.20;1.65;;;16.40;96.10;;;;;;5040843;28;20199;-31
2023/07/18 02:32:58;;;;;;;5.78;1.67;;;16.40;96.10;;;;;;5046275;28;20689;-31
2023/07/18 02:35:30;;;;;;;4.15;1.85;;;16.40;96.20;;;;;;5045881;28;20204;-31
2023/07/18 02:38:03;;;;;;;3.88;1.83;;;16.40;96.20;;;;;;5040550;28;20232;-31
2023/07/18 02:40:35;;;;;;;4.80;1.80;;;16.40;96.10;;;;;;5025214;28;20296;-31
2023/07/18 02:43:05;;;;;;;3.50;1.77;;;16.30;96.10;;;;;;5026148;28;20197;-31
2023/07/18 02:45:32;;;;;;;7.60;2.42;;;16.30;96.10;;;;;;5035667;28;20219;-31
2023/07/18 02:47:59;;;;;;;3.80;1.75;;;16.20;96.00;;;;;;5029715;28;20258;-31
2023/07/18 02:50:27;;;;;;;5.10;1.73;;;16.20;96.20;;;;;;5023988;28;20202;-31
2023/07/18 02:52:57;;;;;;;2.70;1.63;;;16.20;96.10;;;;;;5026130;28;20232;-31
2023/07/18 02:55:29;;;;;;;3.13;1.95;;;16.20;96.10;;;;;;5026141;28;20567;-31
2023/07/18 02:58:00;;;;;;;5.30;1.90;;;16.20;96.20;;;;;;5024620;28;20243;-31
2023/07/18 03:00:28;;;;;;;3.40;1.80;;;16.20;96.20;;;;;;5032744;28;20294;-31
2023/07/18 03:02:58;;;;;;;4.07;2.00;;;16.10;96.10;;;;;;5046080;28;20220;-31
2023/07/18 03:05:27;;;;;;;3.70;1.47;;;16.10;96.10;;;;;;5040531;28;20667;-31
2023/07/18 03:07:57;;;;;;;4.40;1.65;;;16.10;96.20;;;;;;5024588;28;20216;-31
2023/07/18 03:10:27;;;;;;;3.20;1.40;;;16.10;96.30;;;;;;5028993;28;20258;-31
2023/07/18 03:12:56;;;;;;;2.40;1.60;;;16.00;96.20;;;;;;5028415;28;20606;-31
2023/07/18 03:15:26;;;;;;;3.22;1.70;;;16.00;96.30;;;;;;5033602;28;20637;-31
2023/07/18 03:17:55;;;;;;;4.63;1.90;;;16.00;96.20;;;;;;5028749;28;20205;-31
2023/07/18 03:20:23;;;;;;;3.17;1.70;;;16.00;96.20;;;;;;5028786;28;20316;-31
2023/07/18 03:22:53;;;;;;;4.90;1.87;;;15.90;96.20;;;;;;5027752;28;20373;-31
2023/07/18 03:25:23;;;;;;;4.60;2.00;;;15.90;96.20;;;;;;5031819;28;20209;-31
2023/07/18 03:27:51;;;;;;;3.90;1.50;;;15.90;96.20;;;;;;5029596;28;20209;-31
2023/07/18 03:30:19;;;;;;;2.40;1.60;;;15.90;96.20;;;;;;5031787;28;20243;-32
2023/07/18 03:32:48;;;;;;;4.53;2.20;;;15.90;96.10;;;;;;5047969;28;20232;-31
2023/07/18 03:35:15;;;;;;;2.30;1.73;;;15.90;96.10;;;;;;5046807;28;20738;-31
2023/07/18 03:37:47;;;;;;;4.72;1.70;;;15.90;96.20;;;;;;5031086;28;20769;-32
2023/07/18 03:40:18;;;;;;;4.40;2.00;;;15.80;96.20;;;;;;5028986;28;20259;-31
2023/07/18 03:42:45;;;;;;;3.53;1.70;;;15.80;96.20;;;;;;5028161;28;20217;-31
2023/07/18 03:45:13;;;;;;;3.63;2.20;;;15.80;96.20;;;;;;5029370;28;20239;-31
2023/07/18 03:47:44;;;;;;;5.38;2.03;;;15.80;96.30;;;;;;5048897;28;20623;-24
2023/07/18 03:50:16;;;;;;;3.13;1.77;;;15.80;96.30;;;;;;5047999;28;20204;-24
2023/07/18 03:52:48;;;;;;;4.28;2.05;;;15.80;96.40;;;;;;5047517;28;20220;-24
2023/07/18 03:55:21;;;;;;;5.10;1.90;;;15.70;96.40;;;;;;5047083;28;20230;-24
2023/07/18 03:57:48;;;;;;;4.27;1.60;;;15.70;96.30;;;;;;5028983;28;20201;-25
2023/07/18 04:00:19;;;;;;;2.78;1.75;;;15.70;96.40;;;;;;5028139;28;20205;-25
2023/07/18 04:02:49;;;;;;;4.03;2.17;;;15.70;96.40;;;;;;5027464;28;20586;-25
2023/07/18 04:05:21;;;;;;;3.90;1.90;;;15.70;96.40;;;;;;5026320;28;20221;-25
2023/07/18 04:07:51;;;;;;;4.43;1.60;;;15.70;96.50;;;;;;5029023;28;20213;-25
2023/07/18 04:10:23;;;;;;;3.53;1.80;;;15.70;96.50;;;;;;5029294;28;20286;-25
2023/07/18 04:12:54;;;;;;;2.65;1.92;;;15.70;96.50;;;;;;5028244;28;20225;-25
2023/07/18 04:15:26;;;;;;;4.82;1.90;;;15.70;96.60;;;;;;5027111;28;20720;-25
2023/07/18 04:17:54;;;;;;;3.45;1.60;;;15.70;96.50;;;;;;5047029;28;20200;-25
2023/07/18 04:20:21;;;;;;;4.03;1.80;;;15.70;96.60;;;;;;5045602;28;20284;-25
2023/07/18 04:22:51;;;;;;;2.75;1.80;;;15.70;96.70;;;;;;5048144;28;20307;-24
2023/07/18 04:25:21;;;;;;;4.70;2.08;;;15.70;96.70;;;;;;5043227;28;20208;-25
2023/07/18 04:27:53;;;;;;;3.70;2.25;;;15.70;96.70;;;;;;5048282;28;20266;-25
2023/07/18 04:30:23;;;;;;;3.13;1.70;;;15.70;96.70;;;;;;5046700;28;20216;-24
2023/07/18 04:32:53;;;;;;;5.05;2.00;;;15.70;96.80;;;;;;5045210;28;20232;-25
2023/07/18 04:35:22;;;;;;;5.00;1.90;;;15.70;96.80;;;;;;5047271;28;20234;-29
2023/07/18 04:37:50;;;;;;;6.03;1.90;;;15.70;96.80;;;;;;5047779;28;20291;-25
2023/07/18 04:40:19;;;;;;;3.73;1.93;;;15.70;96.80;;;;;;5047605;28;20626;-25
2023/07/18 04:42:49;;;;;;;1.92;1.50;;;15.70;96.70;;;;;;5034868;28;20213;-24
2023/07/18 04:45:16;;;;;;;4.70;2.40;;;15.70;96.80;;;;;;5026577;28;20243;-24
2023/07/18 04:47:47;;;;;;;4.70;2.08;;;15.70;96.80;;;;;;5040612;28;20204;-25
2023/07/18 04:50:15;;;;;;;3.10;1.88;;;15.80;96.80;;;;;;5047010;28;20262;-25
2023/07/18 04:52:42;;;;;;;3.35;1.70;;;15.80;96.80;;;;;;5038203;28;20229;-25
2023/07/18 04:55:10;;;;;;;6.33;2.00;;;15.80;96.80;;;;;;5027808;28;20205;-25
2023/07/18 04:57:42;;;;;;;3.03;1.93;;;15.80;96.80;;;;;;5031535;28;20196;-25
2023/07/18 05:00:10;;;;;;;3.20;1.73;;;15.80;96.80;;;;;;5032102;28;20259;-25
2023/07/18 05:02:40;;;;;;;3.90;1.90;;;15.80;96.80;;;;;;5032783;28;20667;-24
2023/07/18 05:05:10;;;;;;;3.97;1.87;;;15.80;96.90;;;;;;5030463;28;20201;-25
2023/07/18 05:07:43;;;;;;;4.47;2.00;;;15.80;96.90;;;;;;5033800;28;20308;-25
2023/07/18 05:10:10;;;;;;;3.97;1.90;;;15.80;96.80;;;;;;5029048;28;20204;-24
2023/07/18 05:12:39;;;;;;;3.47;2.15;;;15.90;96.90;;;;;;5030709;28;20227;-25
2023/07/18 05:15:11;;;;;;;2.60;1.98;;;15.90;97.00;;;;;;5032221;28;20264;-25
2023/07/18 05:17:41;;;;;;;3.77;1.93;;;15.90;97.00;;;;;;5037051;28;20433;-24
2023/07/18 05:20:11;;;;;;;2.90;1.77;;;16.00;97.10;;;;;;5027558;28;20722;-24
2023/07/18 05:22:50;;;;;;;5.87;2.80;;;16.00;97.10;;;;;;5030408;28;20220;-25
2023/07/18 05:25:20;;;;;;;4.10;1.63;;;16.10;97.30;;;;;;5034474;28;20286;-24
2023/07/18 05:27:47;;;;;;;3.40;1.77;;;16.10;97.20;;;;;;5035210;28;20200;-24
2023/07/18 05:30:19;;;;;;;3.57;2.00;;;16.10;97.20;;;;;;5044326;28;20216;-25
2023/07/18 05:32:50;;;;;;;4.28;1.98;;;16.20;97.40;;;;;;5040645;28;20224;-25
2023/07/18 05:35:22;;;;;;;5.30;1.97;;;16.20;97.30;;;;;;5046645;28;20595;-24
2023/07/18 05:37:49;;;;;;;2.60;1.67;;;16.30;97.40;;;;;;5032190;28;20232;-25
2023/07/18 05:40:17;;;;;;;4.25;1.63;;;16.30;97.50;;;;;;5021747;28;20295;-25
2023/07/18 05:42:54;;;;;;;4.35;1.85;;;16.30;97.50;;;;;;5029629;28;20287;-24
2023/07/18 05:45:26;;;;;;;2.38;1.83;;;16.40;97.50;;;;;;5027956;28;20205;-25
2023/07/18 05:47:53;;;;;;;3.28;1.65;;;16.40;97.50;;;;;;5041779;28;20278;-25
2023/07/18 05:50:23;;;;;;;2.70;1.67;;;16.40;97.50;;;;;;5043080;28;20686;-25
2023/07/18 05:52:55;;;;;;;3.35;1.67;;;16.50;97.60;;;;;;5041909;28;20541;-25
2023/07/18 05:55:23;;;;;;;4.40;1.88;;;16.50;97.60;;;;;;5030382;28;20259;-25
2023/07/18 05:57:50;;;;;;;4.28;1.80;;;16.50;97.60;;;;;;5055186;28;20213;-25
2023/07/18 06:00:18;;;;;;;3.63;1.85;;;16.60;97.60;;;;;;5047275;28;20621;-24
2023/07/18 06:02:47;;;;;;;4.80;2.05;;;16.60;97.70;;;;;;5035910;28;20201;-24
2023/07/18 06:05:15;;;;;;;3.00;1.70;;;16.70;97.70;;;;;;5031674;28;20220;-25
2023/07/18 06:07:42;;;;;;;5.05;1.80;;;16.70;97.80;;;;;;5032197;28;20212;-25
2023/07/18 06:10:11;;;;;;;3.92;1.98;;;16.70;97.80;;;;;;5025470;28;20228;-25
2023/07/18 06:12:40;;;;;;;4.50;1.85;;;16.80;97.80;;;;;;5033384;28;20698;-25
2023/07/18 06:15:10;;;;;;;4.93;1.83;;;16.80;97.90;;;;;;5035835;28;20769;-31
2023/07/18 06:17:39;;;;;;;4.60;2.30;;;16.90;98.00;;;;;;5057698;28;20224;-31
2023/07/18 06:20:13;;;;;;;5.53;1.75;;;16.90;98.00;;;;;;5039091;28;20215;-31
2023/07/18 06:22:47;;;;;;;6.55;2.72;;;17.00;98.00;;;;;;5044755;28;20219;-31
2023/07/18 06:25:15;;;;;;;4.60;1.85;;;17.00;98.10;;;;;;5029048;28;20200;-32
2023/07/18 06:27:42;;;;;;;5.82;1.85;;;17.10;98.10;;;;;;5033112;28;20615;-32
2023/07/18 06:30:12;;;;;;;5.90;1.90;;;17.20;98.20;;;;;;5035678;28;20220;-31
2023/07/18 06:32:39;;;;;;;5.20;1.80;;;17.20;98.20;;;;;;5044794;28;20274;-31
2023/07/18 06:35:10;;;;;;;6.07;1.70;;;17.30;98.30;;;;;;5043866;28;20308;-31
2023/07/18 06:37:52;;;;;;;4.22;1.77;;;17.40;98.40;;;;;;5043354;28;20785;-31
2023/07/18 06:40:19;;;;;;;2.80;1.70;;;17.40;98.40;;;;;;5036133;28;20243;-31
2023/07/18 06:42:49;;;;;;;3.78;1.90;;;17.50;98.40;;;;;;5033994;28;20205;-24
2023/07/18 06:45:16;;;;;;;3.53;1.73;;;17.60;98.50;;;;;;5034290;28;20208;-25
2023/07/18 06:47:46;;;;;;;3.45;1.58;;;17.60;98.50;;;;;;5028735;28;20683;-24
2023/07/18 06:50:16;;;;;;;4.03;1.73;;;17.70;98.60;;;;;;5030714;28;20236;-26
2023/07/18 06:52:44;;;;;;;6.50;1.90;;;17.80;98.70;;;;;;5030837;28;20225;-24
2023/07/18 06:55:11;;;;;;;4.78;2.00;;;17.80;98.70;;;;;;5028172;28;20204;-24
2023/07/18 06:57:38;;;;;;;3.85;2.55;;;17.90;98.70;;;;;;5030108;28;20221;-24
2023/07/18 07:00:11;;;;;;;6.03;2.40;;;17.90;98.80;;;;;;5034642;28;21021;-31
2023/07/18 07:02:39;;;;;;;5.13;3.30;;;18.00;98.80;;;;;;5029002;28;20228;-31
2023/07/18 07:05:09;;;;;;;6.45;2.75;;;18.00;98.80;;;;;;5029020;28;20220;-31
2023/07/18 07:07:36;;;;;;;4.47;2.22;;;18.10;98.80;;;;;;5030011;28;20204;-31
2023/07/18 07:10:10;;;;;;;4.95;2.08;;;18.20;98.90;;;;;;5029951;28;20212;-31
2023/07/18 07:12:43;;;;;;;4.50;1.90;;;18.20;98.90;;;;;;5032546;28;20216;-31
2023/07/18 07:15:15;;;;;;;4.70;1.92;;;18.20;98.90;;;;;;5036693;28;20212;-31
2023/07/18 07:17:45;;;;;;;2.35;1.33;;;18.30;99.00;;;;;;5047709;28;20211;-31
2023/07/18 07:20:14;;;;;;;2.95;1.20;;;18.30;98.90;;;;;;5045771;28;20304;-31
2023/07/18 07:22:43;;;;;;;1.77;1.17;;;18.40;99.00;;;;;;5020846;28;20212;-31
2023/07/18 07:25:14;;;;;;;2.92;1.30;;;18.50;99.10;;;;;;5042389;28;20221;-31
2023/07/18 07:27:44;;;;;;;2.20;1.10;;;18.60;99.10;;;;;;5031511;28;20693;-24
2023/07/18 07:30:15;;;;;;;1.83;0.93;;;18.60;99.10;;;;;;5030152;28;20215;-24
2023/07/18 07:32:55;;;;;;;2.97;1.33;;;18.70;99.20;;;;;;5035879;28;20216;-24
2023/07/18 07:35:25;;;;;;;2.55;1.40;;;18.80;99.30;;;;;;5043951;28;20208;-31
2023/07/18 07:37:52;;;;;;;1.88;1.13;;;18.80;99.30;;;;;;5031520;28;20239;-31
2023/07/18 07:40:22;;;;;;;2.50;1.00;;;19.00;99.40;;;;;;5027531;28;20209;-31
2023/07/18 07:42:50;;;;;;;2.50;0.90;;;19.00;99.30;;;;;;5030047;28;20671;-31
2023/07/18 07:45:22;;;;;;;2.80;1.00;;;19.10;99.30;;;;;;5045930;28;20208;-31
2023/07/18 07:47:49;;;;;;;2.45;1.10;;;19.10;99.30;;;;;;5040929;28;20212;-31
2023/07/18 07:50:17;;;;;;;1.92;1.17;;;19.20;99.30;;;;;;5027292;28;20244;-31
2023/07/18 07:52:45;;;;;;;3.90;1.30;;;19.30;99.40;;;;;;5028614;28;20603;-31
2023/07/18 07:55:15;;;;;;;1.65;0.70;;;19.30;99.40;;;;;;5027005;28;20679;-31
2023/07/18 07:57:45;;;;;;;1.73;0.70;;;19.40;99.50;;;;;;5027177;28;20189;-31
2023/07/18 08:00:15;;;;;;;1.48;0.80;;;19.50;99.50;;;;;;5036571;28;20307;-31
2023/07/18 08:02:42;;;;;;;1.95;1.08;;;19.60;99.50;;;;;;5036515;28;20231;-31
2023/07/18 08:05:12;;;;;;;1.65;1.08;;;19.60;99.50;;;;;;5027555;28;20209;-31
2023/07/18 08:07:42;;;;;;;1.77;1.13;;;19.70;99.60;;;;;;5028743;28;20216;-31
2023/07/18 08:10:13;;;;;;;2.05;0.80;;;19.80;99.60;;;;;;5033314;28;20266;-31
2023/07/18 08:12:42;;;;;;;2.10;0.98;;;19.90;99.70;;;;;;5044295;28;20220;-31
2023/07/18 08:15:09;;;;;;;2.95;1.15;;;20.00;99.70;;;;;;5038991;28;20205;-24
2023/07/18 08:17:39;;;;;;;2.20;0.90;;;20.10;99.80;;;;;;5033022;28;20205;-24
2023/07/18 08:20:08;;;;;;;1.98;0.80;;;20.20;99.90;;;;;;5028595;28;20236;-31
2023/07/18 08:22:37;;;;;;;1.70;0.88;;;20.20;99.90;;;;;;5010595;28;20201;-31
2023/07/18 08:25:05;;;;;;;2.92;0.90;;;20.30;99.90;;;;;;5026314;28;20745;-31
2023/07/18 08:27:32;;;;;;;1.63;0.70;;;20.40;99.90;;;;;;5028292;28;20217;-31
2023/07/18 08:30:00;;;;;;;2.28;0.73;;;20.50;99.90;;;;;;5034551;28;20730;-31
2023/07/18 08:32:30;;;;;;;1.73;0.80;;;20.60;99.90;;;;;;5035877;28;20730;-31
2023/07/18 08:34:57;;;;;;;2.95;0.80;;;20.60;99.90;;;;;;5047024;28;20267;-31
2023/07/18 08:37:29;;;;;;;1.38;0.70;;;20.70;99.90;;;;;;5029124;28;20685;-31
2023/07/18 08:40:01;;;;;;;2.45;0.68;;;20.80;99.90;;;;;;5035423;28;20208;-31
2023/07/18 08:42:30;;;;;;;2.13;0.70;;;20.90;99.90;;;;;;5029536;28;20271;-31
2023/07/18 08:44:58;;;;;;;1.20;0.60;;;20.90;99.90;;;;;;5028888;28;20228;-31
2023/07/18 08:47:29;;;;;;;2.08;0.80;;;21.00;99.90;;;;;;5038830;28;20242;-31
2023/07/18 08:50:01;;;;;;;1.23;0.50;;;21.10;99.90;;;;;;5035952;28;20308;-31
2023/07/18 08:52:28;;;;;;;2.72;0.70;;;21.20;99.90;;;;;;5032883;28;20216;-31
2023/07/18 08:54:56;;;;;;;1.67;0.50;;;21.20;99.90;;;;;;5036261;28;20225;-31
2023/07/18 08:57:23;;;;;;;2.83;0.63;;;21.30;99.90;;;;;;5025658;28;20209;-31
2023/07/18 08:59:50;;;;;;;1.20;0.63;;;21.40;99.90;;;;;;5026659;28;20193;-31
2023/07/18 09:02:20;;;;;;;2.47;0.70;;;21.50;99.90;;;;;;5040608;28;20212;-31
2023/07/18 09:04:50;;;;;;;1.08;0.57;;;21.50;99.90;;;;;;5027496;28;20310;-31
2023/07/18 09:07:26;;;;;;;3.83;0.70;;;21.50;99.90;;;;;;5036843;28;20200;-32
2023/07/18 09:09:59;;;;;;;1.17;0.57;;;21.60;99.90;;;;;;5027068;28;20197;-31
2023/07/18 09:12:31;;;;;;;2.08;0.57;;;21.60;99.80;;;;;;5042207;28;20299;-24
2023/07/18 09:14:58;;;;;;;1.80;0.60;;;21.60;99.70;;;;;;5024809;28;20212;-24
2023/07/18 09:17:31;;;;;;;2.65;0.45;;;21.60;99.60;;;;;;5025845;28;20193;-24
2023/07/18 09:20:08;;;;;;;2.00;0.50;;;21.60;99.60;;;;;;5025768;28;20591;-25
2023/07/18 09:22:39;;;;;;;1.08;0.40;;;21.60;99.60;;;;;;5026852;28;20205;-24
2023/07/18 09:25:13;;;;;;;2.33;0.70;;;21.70;99.70;;;;;;5026065;28;20212;-24
2023/07/18 09:27:42;;;;;;;1.25;0.70;;;21.70;99.70;;;;;;5026330;28;20196;-24
2023/07/18 09:30:10;;;;;;;0.77;0.60;;;21.70;99.80;;;;;;5029665;28;20217;-31
2023/07/18 09:32:39;;;;;;;1.17;0.60;;;21.80;99.80;;;;;;5031544;28;20196;-31
2023/07/18 09:35:09;;;;;;;1.83;0.63;;;21.90;99.90;;;;;;5036879;28;20210;-31
2023/07/18 09:37:45;;;;;;;2.53;0.60;;;21.90;99.90;;;;;;5031597;28;20205;-31
2023/07/18 09:40:17;;;;;;;1.85;0.70;;;22.00;99.90;;;;;;5024670;28;20224;-31
2023/07/18 09:42:46;;;;;;;3.05;0.82;;;22.10;99.90;;;;;;5025124;28;20205;-32
2023/07/18 09:45:15;;;;;;;1.75;0.70;;;22.20;99.90;;;;;;5024190;28;20224;-32
2023/07/18 09:47:43;;;;;;;0.80;0.60;;;22.20;99.90;;;;;;5026063;28;20211;-31
2023/07/18 09:50:13;;;;;;;0.85;0.60;;;22.30;99.90;;;;;;5024866;28;20685;-32
2023/07/18 09:52:49;;;;;;;2.47;0.60;;;22.30;99.90;;;;;;5024711;28;20201;-31
2023/07/18 09:55:30;;;;;;;1.98;0.70;;;22.30;99.90;;;;;;5027055;28;20227;-31
2023/07/18 09:58:00;;;;;;;2.20;0.95;;;22.40;99.90;;;;;;5041755;28;20212;-32
2023/07/18 10:00:32;;;;;;;2.38;0.82;;;22.40;99.90;;;;;;5032506;28;20192;-31
2023/07/18 10:03:03;;;;;;;1.63;0.70;;;22.50;99.90;;;;;;5036438;28;20217;-32
2023/07/18 10:05:33;;;;;;;1.35;0.50;;;22.60;99.90;;;;;;5038101;28;20232;-31
2023/07/18 10:08:05;;;;;;;1.65;0.70;;;22.60;99.90;;;;;;5030643;28;20713;-31
2023/07/18 10:10:38;;;;;;;1.25;0.57;;;22.70;99.90;;;;;;5029607;28;20205;-31
2023/07/18 10:13:06;;;;;;;1.38;0.70;;;22.70;99.90;;;;;;5039756;28;20228;-31
2023/07/18 10:16:32;;;;;;;3.42;0.63;;;22.70;99.90;;;;;;5028916;28;20196;-31
2023/07/18 10:19:19;;;;;;;1.33;0.63;;;22.80;99.80;;;;;;5032313;28;20207;-31
2023/07/18 10:21:52;;;;;;;1.65;0.65;;;22.80;99.90;;;;;;5026461;28;20220;-31
2023/07/18 10:24:24;;;;;;;4.00;0.75;;;22.90;99.90;;;;;;5030373;28;20207;-31
2023/07/18 10:26:54;;;;;;;1.65;0.80;;;22.90;99.90;;;;;;5034982;28;20224;-31
2023/07/18 10:29:28;;;;;;;3.47;0.90;;;23.00;99.90;;;;;;5022183;28;20204;-31
2023/07/18 10:31:57;;;;;;;1.95;0.57;;;23.00;99.90;;;;;;5025392;28;20244;-32
2023/07/18 10:34:24;;;;;;;3.25;0.85;;;23.10;99.80;;;;;;5024189;28;20718;-23
2023/07/18 10:36:59;;;;;;;1.98;0.60;;;23.10;99.70;;;;;;5027571;28;20196;-24
2023/07/18 10:39:44;;;;;;;2.05;0.63;;;23.10;99.60;;;;;;5032519;28;20776;-23
2023/07/18 10:42:17;;;;;;;3.88;0.80;;;23.20;99.60;;;;;;5027755;28;20211;-24
2023/07/18 10:44:48;;;;;;;0.93;0.50;;;23.20;99.80;;;;;;5033432;28;20308;-23
2023/07/18 10:47:19;;;;;;;1.20;0.50;;;23.20;99.50;;;;;;5027435;28;20205;-23
2023/07/18 10:49:47;;;;;;;3.47;0.70;;;23.10;99.20;;;;;;5038381;28;20705;-23
2023/07/18 10:52:15;;;;;;;2.95;0.88;;;23.00;99.10;;;;;;5023399;28;20572;-23
2023/07/18 10:54:51;;;;;;;2.65;0.82;;;23.00;99.10;;;;;;5027761;28;20600;-23
2023/07/18 10:57:33;;;;;;;0.95;0.57;;;23.00;99.10;;;;;;5045774;28;20691;-23
2023/07/18 11:00:05;;;;;;;0.80;0.65;;;22.90;98.80;;;;;;5044150;28;20207;-23
2023/07/18 11:02:41;;;;;;;1.48;0.60;;;22.90;99.00;;;;;;5034251;28;20564;-23
2023/07/18 11:05:11;;;;;;;2.42;0.60;;;22.90;99.00;;;;;;5024434;28;20216;-23
2023/07/18 11:07:44;;;;;;;2.75;0.70;;;22.90;98.90;;;;;;5034533;28;20283;-23
2023/07/18 11:10:15;;;;;;;0.88;0.60;;;22.90;98.90;;;;;;5027679;28;20709;-23
2023/07/18 11:12:43;;;;;;;1.15;0.60;;;22.80;98.90;;;;;;5040193;28;20279;-24
2023/07/18 11:15:14;;;;;;;1.60;0.90;;;22.80;98.90;;;;;;5040482;28;20247;-24
2023/07/18 11:17:44;;;;;;;1.45;0.70;;;22.80;98.90;;;;;;5022924;28;20235;-24
2023/07/18 11:20:18;;;;;;;1.65;0.70;;;22.90;98.80;;;;;;5023361;28;20652;-24
2023/07/18 11:22:45;;;;;;;2.10;0.88;;;22.90;98.90;;;;;;5027244;28;20219;-23
2023/07/18 11:25:15;;;;;;;1.60;0.80;;;22.90;98.80;;;;;;5044582;28;20721;-23
2023/07/18 11:27:53;;;;;;;1.75;0.80;;;22.90;98.80;;;;;;5032742;28;20632;-23
2023/07/18 11:30:28;;;;;;;1.98;0.82;;;23.00;98.90;;;;;;5035544;28;20266;-23
2023/07/18 11:32:55;;;;;;;1.95;1.00;;;23.00;99.00;;;;;;5027700;28;20211;-24
2023/07/18 11:35:26;;;;;;;1.88;1.00;;;23.00;98.90;;;;;;5032274;28;20699;-23
2023/07/18 11:37:53;;;;;;;2.42;1.20;;;23.10;99.00;;;;;;5052594;28;20228;-24
2023/07/18 11:40:28;;;;;;;3.20;1.20;;;23.10;99.00;;;;;;5030182;28;20323;-23
2023/07/18 11:43:00;;;;;;;2.88;1.10;;;23.20;99.00;;;;;;5047387;28;20210;-23
2023/07/18 11:45:32;;;;;;;3.13;1.30;;;23.20;99.00;;;;;;5038566;28;20200;-23
2023/07/18 11:48:02;;;;;;;1.98;1.17;;;23.20;98.90;;;;;;5032226;28;20769;-23
2023/07/18 11:50:30;;;;;;;2.55;1.17;;;23.20;98.80;;;;;;5042693;28;20209;-24
2023/07/18 11:53:08;;;;;;;2.80;1.42;;;23.20;98.80;;;;;;5035728;28;20716;-24
2023/07/18 11:55:37;;;;;;;3.45;1.40;;;23.20;98.80;;;;;;5038757;28;20205;-24
2023/07/18 11:58:09;;;;;;;1.80;1.00;;;23.20;98.90;;;;;;5040205;28;20297;-24
2023/07/18 12:00:42;;;;;;;1.55;1.10;;;23.20;98.80;;;;;;5045988;28;20249;-23
2023/07/18 12:03:09;;;;;;;2.28;1.40;;;23.30;98.80;;;;;;5030493;28;20204;-24
2023/07/18 12:05:38;;;;;;;2.45;1.15;;;23.30;98.90;;;;;;5039961;28;20201;-24
2023/07/18 12:08:08;;;;;;;1.52;1.10;;;23.30;98.90;;;;;;5029978;28;20236;-23
2023/07/18 12:10:38;;;;;;;2.70;1.35;;;23.40;99.00;;;;;;5030036;28;20201;-23
2023/07/18 12:13:05;;;;;;;1.98;1.30;;;23.40;99.00;;;;;;5029323;28;20201;-23
2023/07/18 12:15:32;;;;;;;2.65;1.08;;;23.50;99.10;;;;;;5028028;28;20205;-24
2023/07/18 12:18:06;;;;;;;2.95;1.65;;;23.50;99.10;;;;;;5034484;28;20746;-24
2023/07/18 12:20:33;;;;;;;6.85;3.47;;;23.60;99.30;;;;;;5034544;28;20312;-25
2023/07/18 12:23:01;;;;;;;18.10;8.48;;;23.70;99.30;;;;;;5046113;28;20276;-25
2023/07/18 12:25:31;;;;;;;8.45;3.38;;;23.70;99.00;;;;;;5032776;28;20253;-24
2023/07/18 12:28:00;;;;;;;3.95;1.83;;;23.70;99.10;;;;;;5028128;28;20221;-24
2023/07/18 12:30:30;;;;;;;3.60;1.80;;;23.80;99.00;;;;;;5027785;28;20207;-25
2023/07/18 12:32:59;;;;;;;4.40;2.17;;;23.80;99.00;;;;;;5040848;28;20243;-32
2023/07/18 12:35:28;;;;;;;3.65;2.55;;;23.80;98.90;;;;;;5028177;28;20224;-32
2023/07/18 12:37:58;;;;;;;4.32;2.63;;;23.90;98.90;;;;;;5027660;28;20232;-32
2023/07/18 12:40:30;;;;;;;3.28;2.17;;;23.90;98.90;;;;;;5043395;28;20235;-32
2023/07/18 12:42:58;;;;;;;5.50;2.80;;;24.00;99.20;;;;;;5025578;28;20199;-32
2023/07/18 12:45:25;;;;;;;5.28;2.10;;;24.00;99.00;;;;;;5026153;28;20484;-32
2023/07/18 12:47:54;;;;;;;5.13;3.20;;;24.00;98.60;;;;;;5027608;28;20247;-32
2023/07/18 12:50:22;;;;;;;3.30;2.20;;;24.00;98.60;;;;;;5025074;28;20374;-32
2023/07/18 12:52:57;;;;;;;3.20;1.92;;;24.00;98.70;;;;;;5025665;28;20213;-32
2023/07/18 12:55:27;;;;;;;3.00;1.90;;;24.10;98.70;;;;;;5031664;28;20249;-32
2023/07/18 12:57:56;;;;;;;2.95;1.90;;;24.10;98.10;;;;;;5046579;28;20208;-32
2023/07/18 13:00:24;;;;;;;1.65;1.55;;;24.10;98.40;;;;;;5029546;28;20259;-31
2023/07/18 13:02:55;;;;;;;5.60;2.15;;;24.10;98.50;;;;;;5036753;28;20513;-31